Time;durP1;ratioP1;P1;durP2;ratioP2;P2;SDS_P1;SDS_P2;PMS_P1;PMS_P2;Temp;Humidity;BMP_temperature;BMP_pressure;BME280_temperature;BME280_humidity;BME280_pressure;Samples;Min_cycle;Max_cycle;Signal;HPM_P1;HPM_P2
2022/10/27 00:02:22;;;;;;;14.23;5.95;;;12.60;99.90;;;;;;4933414;29;20491;-75
2022/10/27 00:04:51;;;;;;;15.82;6.20;;;12.60;99.90;;;;;;4928328;29;20059;-75
2022/10/27 00:07:23;;;;;;;14.50;5.80;;;12.60;99.90;;;;;;4933864;29;20047;-75
2022/10/27 00:09:48;;;;;;;13.77;5.75;;;12.70;99.90;;;;;;4928899;29;20023;-77
2022/10/27 00:12:14;;;;;;;9.55;5.80;;;12.60;99.90;;;;;;4929201;29;20099;-77
2022/10/27 00:14:46;;;;;;;13.73;5.45;;;12.60;99.90;;;;;;4947195;28;20031;-76
2022/10/27 00:17:11;;;;;;;13.73;5.78;;;12.60;99.90;;;;;;4926727;29;20032;-77
2022/10/27 00:19:37;;;;;;;14.98;6.10;;;12.60;99.90;;;;;;4930937;29;20035;-76
2022/10/27 00:22:02;;;;;;;15.75;6.30;;;12.60;99.90;;;;;;4929501;29;20499;-77
2022/10/27 00:24:28;;;;;;;13.52;6.22;;;12.60;99.90;;;;;;4948533;28;20030;-77
2022/10/27 00:26:56;;;;;;;11.63;5.10;;;12.50;99.90;;;;;;4930691;29;20036;-77
2022/10/27 00:29:22;;;;;;;11.40;5.18;;;12.50;99.90;;;;;;4932645;29;20024;-77
2022/10/27 00:31:51;;;;;;;16.05;5.40;;;12.50;99.90;;;;;;4933683;29;20032;-77
2022/10/27 00:34:16;;;;;;;12.25;5.20;;;12.40;99.90;;;;;;4932093;29;20042;-77
2022/10/27 00:36:42;;;;;;;13.60;5.90;;;12.40;99.90;;;;;;4947586;28;20024;-76
2022/10/27 00:39:07;;;;;;;10.85;5.68;;;12.40;99.90;;;;;;4943149;28;20031;-77
2022/10/27 00:41:39;;;;;;;14.73;5.88;;;12.30;99.90;;;;;;4949701;28;20070;-77
2022/10/27 00:44:42;;;;;;;12.73;5.97;;;12.30;99.90;;;;;;4946839;28;20486;-76
2022/10/27 00:47:30;;;;;;;13.52;5.68;;;12.30;99.90;;;;;;4945070;28;20028;-77
2022/10/27 00:50:01;;;;;;;16.65;6.22;;;12.30;99.90;;;;;;4950244;28;20039;-74
2022/10/27 00:52:32;;;;;;;13.43;5.70;;;12.30;99.90;;;;;;4942323;28;20396;-75
2022/10/27 00:55:03;;;;;;;13.68;5.60;;;12.20;99.90;;;;;;4945407;28;20031;-74
2022/10/27 00:57:30;;;;;;;13.32;4.93;;;12.20;99.90;;;;;;4953045;28;20539;-75
2022/10/27 00:59:57;;;;;;;14.98;5.13;;;12.10;99.90;;;;;;4946589;28;20499;-76
2022/10/27 01:02:23;;;;;;;10.13;5.38;;;12.10;99.90;;;;;;4951995;28;20028;-76
2022/10/27 01:05:01;;;;;;;12.68;5.03;;;12.00;99.90;;;;;;4952051;28;20023;-76
2022/10/27 01:07:27;;;;;;;11.27;4.82;;;12.00;99.90;;;;;;4954122;28;20045;-76
2022/10/27 01:09:53;;;;;;;13.77;5.53;;;11.90;99.90;;;;;;4949208;28;20039;-75
2022/10/27 01:12:19;;;;;;;13.82;5.72;;;11.90;99.90;;;;;;4950399;28;20032;-75
2022/10/27 01:14:45;;;;;;;10.32;5.15;;;11.90;99.90;;;;;;4950954;28;20034;-76
2022/10/27 01:17:34;;;;;;;13.32;5.18;;;11.80;99.90;;;;;;4950479;28;20035;-76
2022/10/27 01:20:03;;;;;;;14.10;5.40;;;11.80;99.90;;;;;;4951763;28;20027;-76
2022/10/27 01:22:39;;;;;;;14.57;6.15;;;11.70;99.90;;;;;;4951116;28;20028;-76
2022/10/27 01:25:20;;;;;;;10.50;5.30;;;11.70;99.90;;;;;;4952704;28;20171;-76
2022/10/27 01:28:26;;;;;;;12.38;5.88;;;11.70;99.90;;;;;;4943959;28;20424;-76
2022/10/27 01:31:09;;;;;;;10.57;4.90;;;11.70;99.90;;;;;;4954709;28;20094;-76
2022/10/27 01:34:14;;;;;;;12.80;5.32;;;11.70;99.90;;;;;;4951089;28;20033;-76
2022/10/27 01:37:15;;;;;;;10.07;5.13;;;11.70;99.90;;;;;;4948681;28;20111;-75
2022/10/27 01:40:01;;;;;;;10.43;5.00;;;11.70;99.90;;;;;;4948734;28;20042;-76
2022/10/27 01:42:45;;;;;;;11.45;5.32;;;11.70;99.90;;;;;;4950645;28;20455;-76
2022/10/27 01:45:16;;;;;;;15.02;5.72;;;11.70;99.90;;;;;;4953785;28;20159;-75
2022/10/27 01:47:41;;;;;;;8.73;5.10;;;11.70;99.90;;;;;;4951374;28;20114;-75
2022/10/27 01:50:10;;;;;;;12.82;5.07;;;11.60;99.90;;;;;;4958647;28;20114;-76
2022/10/27 01:52:47;;;;;;;8.65;5.05;;;11.60;99.90;;;;;;4955704;28;20556;-76
2022/10/27 01:55:34;;;;;;;8.88;4.32;;;11.60;99.90;;;;;;4939725;28;20038;-76
2022/10/27 01:58:27;;;;;;;8.57;4.82;;;11.60;99.90;;;;;;4952885;28;20114;-76
2022/10/27 02:00:57;;;;;;;9.65;4.50;;;11.50;99.90;;;;;;4949232;28;20028;-77
2022/10/27 02:03:34;;;;;;;10.02;4.43;;;11.50;99.90;;;;;;4950213;29;20035;-77
2022/10/27 02:06:21;;;;;;;8.20;4.72;;;11.50;99.90;;;;;;4952145;28;20114;-76
2022/10/27 02:09:02;;;;;;;11.02;4.57;;;11.50;99.90;;;;;;4956433;28;20023;-76
2022/10/27 02:11:36;;;;;;;11.18;4.55;;;11.50;99.90;;;;;;4949608;28;20034;-76
2022/10/27 02:14:02;;;;;;;11.02;5.28;;;11.40;99.90;;;;;;4954201;28;20054;-76
2022/10/27 02:16:31;;;;;;;8.63;4.70;;;11.40;99.90;;;;;;4951480;28;20476;-75
2022/10/27 02:19:28;;;;;;;13.05;5.32;;;11.40;99.90;;;;;;4951691;28;20502;-75
2022/10/27 02:22:00;;;;;;;8.00;4.25;;;11.40;99.90;;;;;;4965751;28;20041;-76
2022/10/27 02:24:26;;;;;;;11.38;4.55;;;11.40;99.90;;;;;;4938551;28;20023;-76
2022/10/27 02:27:06;;;;;;;10.88;5.93;;;11.40;99.90;;;;;;4948438;28;20034;-75
2022/10/27 02:29:45;;;;;;;11.82;5.40;;;11.30;99.90;;;;;;4949607;28;20176;-75
2022/10/27 02:32:14;;;;;;;11.77;6.50;;;11.30;99.90;;;;;;4954193;28;20035;-74
2022/10/27 02:34:42;;;;;;;12.35;5.78;;;11.30;99.90;;;;;;4952859;28;20382;-75
2022/10/27 02:37:09;;;;;;;12.25;5.32;;;11.30;99.90;;;;;;4959454;28;20027;-75
2022/10/27 02:39:35;;;;;;;15.13;5.38;;;11.30;99.90;;;;;;4949304;28;20492;-75
2022/10/27 02:42:03;;;;;;;8.15;5.25;;;11.20;99.90;;;;;;4933518;28;20031;-75
2022/10/27 02:44:28;;;;;;;10.85;5.72;;;11.20;99.90;;;;;;4949563;28;20024;-75
2022/10/27 02:46:57;;;;;;;12.98;6.57;;;11.20;99.90;;;;;;4953569;28;20434;-75
2022/10/27 02:49:23;;;;;;;11.38;5.90;;;11.10;99.90;;;;;;4950076;28;20027;-75
2022/10/27 02:51:51;;;;;;;10.68;5.72;;;11.10;99.90;;;;;;4936768;29;20484;-75
2022/10/27 02:54:17;;;;;;;16.48;7.10;;;11.10;99.90;;;;;;4942301;28;20036;-75
2022/10/27 02:56:42;;;;;;;10.38;6.43;;;11.00;99.90;;;;;;4949928;28;20058;-76
2022/10/27 02:59:08;;;;;;;9.40;6.38;;;11.00;99.90;;;;;;4949625;28;20043;-75
2022/10/27 03:01:34;;;;;;;13.98;7.45;;;10.90;99.90;;;;;;4945746;28;20063;-75
2022/10/27 03:03:59;;;;;;;16.10;7.70;;;10.90;99.90;;;;;;4936610;28;20027;-75
2022/10/27 03:06:25;;;;;;;24.80;10.02;;;10.90;99.90;;;;;;4945711;28;20370;-75
2022/10/27 03:08:50;;;;;;;16.48;8.60;;;10.90;99.90;;;;;;4948192;28;20053;-73
2022/10/27 03:11:17;;;;;;;18.95;8.38;;;10.90;99.90;;;;;;4952840;28;20126;-75
2022/10/27 03:13:43;;;;;;;14.43;7.43;;;10.80;99.90;;;;;;4946702;28;20459;-75
2022/10/27 03:16:08;;;;;;;10.63;7.35;;;10.80;99.90;;;;;;4952184;28;20059;-75
2022/10/27 03:18:34;;;;;;;19.10;8.38;;;10.80;99.90;;;;;;4950889;28;20038;-76
2022/10/27 03:21:00;;;;;;;12.68;8.40;;;10.80;99.90;;;;;;4951071;28;20035;-75
2022/10/27 03:23:25;;;;;;;11.63;6.47;;;10.80;99.90;;;;;;4953410;28;20031;-75
2022/10/27 03:25:51;;;;;;;9.98;5.30;;;10.80;99.90;;;;;;4949633;28;20110;-75
2022/10/27 03:28:16;;;;;;;10.13;5.90;;;10.80;99.90;;;;;;4953679;28;20024;-75
2022/10/27 03:30:42;;;;;;;11.15;5.60;;;10.70;99.90;;;;;;4948490;28;20059;-76
2022/10/27 03:33:08;;;;;;;9.27;5.75;;;10.70;99.90;;;;;;4950527;28;20043;-74
2022/10/27 03:35:33;;;;;;;9.38;4.95;;;10.70;99.90;;;;;;4945481;28;20036;-74
2022/10/27 03:38:00;;;;;;;12.45;4.93;;;10.70;99.90;;;;;;4952594;28;20038;-76
2022/10/27 03:40:27;;;;;;;10.93;5.00;;;10.60;99.90;;;;;;4949683;28;20040;-75
2022/10/27 03:43:01;;;;;;;11.93;5.38;;;10.60;99.90;;;;;;4950692;28;20055;-76
2022/10/27 03:45:27;;;;;;;10.48;4.78;;;10.60;99.90;;;;;;4948847;28;20023;-76
2022/10/27 03:48:05;;;;;;;8.68;4.80;;;10.60;99.90;;;;;;4953697;28;20020;-76
2022/10/27 03:50:31;;;;;;;6.88;4.68;;;10.60;99.90;;;;;;4950381;28;20396;-76
2022/10/27 03:53:02;;;;;;;13.40;5.10;;;10.50;99.90;;;;;;4946211;28;20455;-76
2022/10/27 03:55:31;;;;;;;14.00;4.35;;;10.50;99.90;;;;;;4950098;28;20031;-77
2022/10/27 03:58:00;;;;;;;8.10;5.18;;;10.50;99.90;;;;;;4936705;29;20067;-77
2022/10/27 04:00:30;;;;;;;12.25;5.65;;;10.50;99.90;;;;;;4956200;28;20436;-77
2022/10/27 04:02:56;;;;;;;11.40;5.28;;;10.50;99.90;;;;;;4953923;28;20110;-76
2022/10/27 04:05:22;;;;;;;9.40;5.13;;;10.50;99.90;;;;;;4955908;28;20410;-76
2022/10/27 04:07:48;;;;;;;9.88;5.25;;;10.50;99.90;;;;;;4955077;28;20023;-75
2022/10/27 04:10:14;;;;;;;7.13;4.95;;;10.50;99.90;;;;;;4947414;28;20380;-76
2022/10/27 04:12:54;;;;;;;13.93;5.95;;;10.50;99.90;;;;;;4950892;28;20062;-76
2022/10/27 04:15:20;;;;;;;16.48;6.60;;;10.40;99.90;;;;;;4948470;28;20023;-76
2022/10/27 04:17:46;;;;;;;11.80;6.45;;;10.40;99.90;;;;;;4937834;28;20049;-76
2022/10/27 04:20:12;;;;;;;17.88;7.32;;;10.50;99.90;;;;;;4955146;28;20031;-75
2022/10/27 04:22:41;;;;;;;14.80;7.85;;;10.40;99.90;;;;;;4952130;28;20031;-77
2022/10/27 04:25:12;;;;;;;17.08;7.75;;;10.40;99.90;;;;;;4949472;28;20058;-76
2022/10/27 04:27:40;;;;;;;11.57;6.38;;;10.40;99.90;;;;;;4946545;28;20775;-75
2022/10/27 04:30:07;;;;;;;11.45;6.28;;;10.40;99.90;;;;;;4948028;28;20035;-75
2022/10/27 04:32:35;;;;;;;13.65;6.88;;;10.30;99.90;;;;;;4946604;28;20046;-77
2022/10/27 04:35:01;;;;;;;12.63;6.53;;;10.30;99.90;;;;;;4949022;28;20039;-77
2022/10/27 04:37:26;;;;;;;13.18;5.93;;;10.30;99.90;;;;;;4954373;28;20039;-76
2022/10/27 04:39:58;;;;;;;13.82;5.82;;;10.20;99.90;;;;;;4953014;29;20404;-76
2022/10/27 04:42:24;;;;;;;12.55;6.45;;;10.30;99.90;;;;;;4953236;28;20411;-76
2022/10/27 04:44:49;;;;;;;13.02;7.18;;;10.20;99.90;;;;;;4949175;28;20102;-76
2022/10/27 04:47:15;;;;;;;13.20;6.55;;;10.20;99.90;;;;;;4931369;29;20484;-77
2022/10/27 04:49:41;;;;;;;18.05;6.82;;;10.30;99.90;;;;;;4948562;29;20027;-75
2022/10/27 04:52:09;;;;;;;13.02;6.38;;;10.20;99.90;;;;;;4933865;29;20098;-76
2022/10/27 04:54:35;;;;;;;13.90;6.45;;;10.20;99.90;;;;;;4946492;28;20031;-77
2022/10/27 04:57:00;;;;;;;13.95;7.07;;;10.20;99.90;;;;;;4948672;28;20035;-74
2022/10/27 04:59:26;;;;;;;16.77;7.28;;;10.20;99.90;;;;;;4946452;28;20512;-76
2022/10/27 05:01:52;;;;;;;13.93;6.97;;;10.20;99.90;;;;;;4948792;28;20114;-76
2022/10/27 05:04:17;;;;;;;15.82;7.15;;;10.20;99.90;;;;;;4954583;28;20114;-75
2022/10/27 05:06:43;;;;;;;15.85;6.75;;;10.10;99.90;;;;;;4944987;28;20031;-76
2022/10/27 05:09:09;;;;;;;10.85;6.65;;;10.10;99.90;;;;;;4945048;28;20032;-76
2022/10/27 05:11:34;;;;;;;12.95;6.40;;;10.20;99.90;;;;;;4950587;28;20581;-75
2022/10/27 05:14:00;;;;;;;11.65;6.20;;;10.10;99.90;;;;;;4949733;28;20582;-76
2022/10/27 05:16:25;;;;;;;14.75;6.68;;;10.10;99.90;;;;;;4951516;28;20039;-75
2022/10/27 05:18:51;;;;;;;11.27;5.93;;;10.20;99.90;;;;;;4936086;28;20032;-76
2022/10/27 05:21:17;;;;;;;11.25;6.28;;;10.10;99.90;;;;;;4956017;28;20110;-77
2022/10/27 05:23:42;;;;;;;21.73;6.97;;;10.10;99.90;;;;;;4951899;28;20035;-77
2022/10/27 05:26:08;;;;;;;13.88;7.03;;;10.10;99.90;;;;;;4962360;28;20020;-76
2022/10/27 05:28:33;;;;;;;9.50;5.95;;;10.10;99.90;;;;;;4952719;28;21257;-77
2022/10/27 05:30:59;;;;;;;15.00;6.22;;;10.10;99.90;;;;;;4954284;28;20062;-77
2022/10/27 05:33:26;;;;;;;7.90;5.47;;;10.10;99.90;;;;;;4957470;28;20047;-77
2022/10/27 05:35:52;;;;;;;11.02;5.85;;;10.10;99.90;;;;;;4959933;28;20557;-77
2022/10/27 05:38:18;;;;;;;8.05;5.35;;;10.10;99.90;;;;;;4953228;28;20035;-75
2022/10/27 05:40:44;;;;;;;13.63;6.20;;;10.10;99.90;;;;;;4954498;29;20078;-80
2022/10/27 05:43:12;;;;;;;15.00;6.82;;;10.10;99.90;;;;;;4969578;28;20031;-80
2022/10/27 05:45:37;;;;;;;15.70;7.00;;;10.10;99.90;;;;;;4965385;28;20027;-78
2022/10/27 05:48:06;;;;;;;23.55;8.45;;;10.10;99.90;;;;;;4947048;29;20027;-77
2022/10/27 05:50:32;;;;;;;18.58;8.02;;;10.10;99.90;;;;;;4956217;28;20039;-78
2022/10/27 05:52:58;;;;;;;17.95;7.45;;;10.10;99.90;;;;;;4942307;28;20035;-79
2022/10/27 05:55:24;;;;;;;20.58;6.78;;;10.10;99.90;;;;;;4957142;28;20035;-81
2022/10/27 05:57:54;;;;;;;17.65;7.18;;;10.10;99.90;;;;;;4941726;28;20034;-79
2022/10/27 06:00:22;;;;;;;19.20;7.70;;;10.10;99.90;;;;;;4958003;28;20533;-80
2022/10/27 06:02:48;;;;;;;17.40;6.35;;;10.00;99.90;;;;;;4948672;28;20389;-70
2022/10/27 06:05:13;;;;;;;17.73;7.22;;;10.00;99.90;;;;;;4948907;28;20023;-70
2022/10/27 06:07:39;;;;;;;14.82;6.38;;;10.00;99.90;;;;;;4951276;28;20042;-70
2022/10/27 06:10:05;;;;;;;16.25;7.72;;;10.10;99.90;;;;;;4951872;28;20324;-71
2022/10/27 06:12:31;;;;;;;17.23;8.30;;;10.10;99.90;;;;;;4949718;28;20038;-71
2022/10/27 06:14:56;;;;;;;17.60;8.48;;;10.10;99.90;;;;;;4953536;28;20119;-78
2022/10/27 06:17:25;;;;;;;22.30;10.00;;;10.10;99.90;;;;;;4959331;28;20027;-81
2022/10/27 06:19:50;;;;;;;16.75;8.98;;;10.20;99.90;;;;;;4965120;28;20038;-80
2022/10/27 06:22:16;;;;;;;21.08;8.25;;;10.20;99.90;;;;;;4953204;28;20027;-81
2022/10/27 06:24:54;;;;;;;20.00;8.88;;;10.20;99.90;;;;;;4954828;29;20446;-79
2022/10/27 06:27:22;;;;;;;15.75;7.00;;;10.20;99.90;;;;;;4955408;28;20047;-79
2022/10/27 06:29:57;;;;;;;14.77;6.95;;;10.20;99.90;;;;;;4964027;28;20027;-80
2022/10/27 06:32:26;;;;;;;12.23;6.65;;;10.20;99.90;;;;;;4951566;28;20045;-80
2022/10/27 06:34:51;;;;;;;18.55;7.05;;;10.20;99.90;;;;;;4957670;28;20098;-80
2022/10/27 06:37:17;;;;;;;22.40;8.52;;;10.20;99.90;;;;;;4960479;28;20065;-80
2022/10/27 06:39:43;;;;;;;17.80;8.77;;;10.20;99.90;;;;;;4960756;28;20039;-80
2022/10/27 06:42:08;;;;;;;19.77;8.98;;;10.10;99.90;;;;;;4956157;28;20034;-79
2022/10/27 06:44:34;;;;;;;30.60;10.07;;;10.10;99.90;;;;;;4960452;28;20062;-80
2022/10/27 06:46:59;;;;;;;30.52;10.63;;;10.10;99.90;;;;;;4955423;28;20038;-81
2022/10/27 06:49:25;;;;;;;28.27;9.63;;;10.10;99.90;;;;;;4960053;28;20053;-79
2022/10/27 06:51:59;;;;;;;25.90;10.00;;;10.10;99.90;;;;;;4939992;29;20038;-80
2022/10/27 06:54:24;;;;;;;21.77;10.02;;;10.10;99.90;;;;;;4963494;28;20428;-78
2022/10/27 06:56:56;;;;;;;26.45;11.27;;;10.10;99.90;;;;;;4964373;28;20042;-79
2022/10/27 06:59:22;;;;;;;21.25;9.02;;;10.10;99.90;;;;;;4959719;28;20131;-80
2022/10/27 07:01:54;;;;;;;18.00;7.50;;;10.10;99.90;;;;;;4949335;28;20050;-79
2022/10/27 07:04:19;;;;;;;11.80;6.55;;;10.10;99.90;;;;;;4957428;28;20503;-79
2022/10/27 07:06:48;;;;;;;10.35;5.43;;;10.20;99.90;;;;;;4949435;28;20053;-79
2022/10/27 07:09:17;;;;;;;7.60;4.55;;;10.20;99.90;;;;;;4956960;28;20031;-80
2022/10/27 07:11:42;;;;;;;8.20;4.70;;;10.20;99.90;;;;;;4959560;28;20031;-79
2022/10/27 07:14:08;;;;;;;10.40;4.57;;;10.20;99.90;;;;;;4965453;28;20033;-80
2022/10/27 07:16:33;;;;;;;9.55;4.65;;;10.20;99.90;;;;;;4959115;28;20110;-79
2022/10/27 07:19:02;;;;;;;8.10;4.05;;;10.30;99.90;;;;;;4959424;28;20039;-80
2022/10/27 07:21:28;;;;;;;9.18;4.90;;;10.40;99.90;;;;;;4958653;28;20038;-78
2022/10/27 07:23:57;;;;;;;8.60;3.83;;;10.40;99.90;;;;;;4954056;28;20042;-78
2022/10/27 07:26:28;;;;;;;5.85;3.17;;;10.40;99.90;;;;;;4955514;28;20027;-78
2022/10/27 07:28:54;;;;;;;8.95;4.28;;;10.50;99.90;;;;;;4956603;28;20734;-78
2022/10/27 07:31:20;;;;;;;6.47;4.10;;;10.60;99.90;;;;;;4954818;28;20038;-78
2022/10/27 07:33:45;;;;;;;7.90;4.25;;;10.60;99.90;;;;;;4951995;28;20449;-77
2022/10/27 07:36:11;;;;;;;8.80;4.22;;;10.70;99.90;;;;;;4943434;28;20051;-80
2022/10/27 07:38:37;;;;;;;6.13;4.43;;;10.80;99.90;;;;;;4955006;28;20030;-76
2022/10/27 07:41:09;;;;;;;7.57;4.03;;;10.80;99.90;;;;;;4958080;28;20047;-79
2022/10/27 07:43:35;;;;;;;5.35;3.83;;;10.90;99.90;;;;;;4953297;28;20035;-78
2022/10/27 07:46:01;;;;;;;10.55;4.18;;;10.90;99.90;;;;;;4949553;28;20035;-77
2022/10/27 07:48:33;;;;;;;7.25;3.90;;;11.10;99.90;;;;;;4953439;28;21464;-79
2022/10/27 07:50:58;;;;;;;6.30;4.13;;;11.10;99.90;;;;;;4955432;28;20058;-80
2022/10/27 07:53:24;;;;;;;8.73;4.50;;;11.20;99.90;;;;;;4959099;28;20019;-79
2022/10/27 07:55:51;;;;;;;10.82;4.55;;;11.20;99.90;;;;;;4959495;28;20102;-79
2022/10/27 07:58:17;;;;;;;7.03;4.40;;;11.30;99.90;;;;;;4939607;28;20043;-79
2022/10/27 08:00:45;;;;;;;12.18;5.22;;;11.30;99.90;;;;;;4951033;28;20027;-77
2022/10/27 08:03:31;;;;;;;10.15;4.90;;;11.40;99.90;;;;;;4950297;28;20661;-76
2022/10/27 08:06:04;;;;;;;16.65;6.13;;;11.50;99.90;;;;;;4947529;28;20039;-76
2022/10/27 08:08:30;;;;;;;9.18;5.32;;;11.60;99.90;;;;;;4951819;28;20023;-78
2022/10/27 08:10:56;;;;;;;7.03;4.93;;;11.60;99.90;;;;;;4957634;28;20090;-78
2022/10/27 08:13:25;;;;;;;8.65;4.82;;;11.70;99.90;;;;;;4945377;28;20042;-78
2022/10/27 08:15:50;;;;;;;8.10;5.75;;;11.80;99.90;;;;;;4956187;28;20086;-78
2022/10/27 08:18:16;;;;;;;9.48;5.28;;;11.80;99.90;;;;;;4951840;28;20039;-79
2022/10/27 08:20:45;;;;;;;8.40;4.80;;;11.80;99.90;;;;;;4952642;28;20047;-78
2022/10/27 08:23:13;;;;;;;7.97;4.88;;;11.90;99.90;;;;;;4948535;28;20033;-79
2022/10/27 08:25:40;;;;;;;10.05;4.43;;;11.90;99.90;;;;;;4955411;28;20031;-79
2022/10/27 08:28:10;;;;;;;6.78;4.32;;;12.00;99.90;;;;;;4956944;28;20024;-79
2022/10/27 08:30:36;;;;;;;11.70;4.40;;;12.10;99.90;;;;;;4955452;28;20419;-79
2022/10/27 08:33:03;;;;;;;10.75;4.20;;;12.10;99.90;;;;;;4957074;28;20073;-79
2022/10/27 08:35:30;;;;;;;11.13;4.47;;;12.10;99.90;;;;;;4946129;28;20039;-79
2022/10/27 08:38:09;;;;;;;10.73;4.00;;;12.20;99.90;;;;;;4958582;28;20031;-79
2022/10/27 08:41:10;;;;;;;6.80;3.88;;;12.20;99.90;;;;;;4943955;28;20027;-79
2022/10/27 08:43:54;;;;;;;9.10;3.92;;;12.30;99.90;;;;;;4958192;28;20369;-77
2022/10/27 08:46:38;;;;;;;6.22;3.85;;;12.40;99.90;;;;;;4957925;28;20476;-79
2022/10/27 08:49:20;;;;;;;10.07;4.37;;;12.40;99.90;;;;;;4953898;28;20035;-76
2022/10/27 08:51:48;;;;;;;7.15;4.57;;;12.50;99.90;;;;;;4948067;28;20269;-77
2022/10/27 08:54:14;;;;;;;5.57;3.53;;;12.60;99.90;;;;;;4952856;28;20034;-77
2022/10/27 08:56:43;;;;;;;7.00;4.28;;;12.70;99.90;;;;;;4952950;28;20444;-77
2022/10/27 08:59:19;;;;;;;8.02;3.97;;;12.80;99.90;;;;;;4952957;28;20039;-78
2022/10/27 09:02:06;;;;;;;12.48;4.65;;;12.80;99.90;;;;;;4954310;28;20056;-77
2022/10/27 09:04:51;;;;;;;7.57;4.25;;;12.90;99.90;;;;;;4957522;28;20045;-78
2022/10/27 09:07:41;;;;;;;7.38;3.72;;;13.00;99.90;;;;;;4959424;28;20030;-77
2022/10/27 09:10:56;;;;;;;11.50;4.20;;;13.10;99.90;;;;;;4957401;28;20030;-78
2022/10/27 09:14:06;;;;;;;8.35;3.53;;;13.20;99.90;;;;;;4954841;28;20024;-78
2022/10/27 09:16:54;;;;;;;10.00;3.75;;;13.30;99.90;;;;;;4964757;28;20098;-79
2022/10/27 09:19:43;;;;;;;6.47;4.00;;;13.40;99.90;;;;;;4960342;28;20031;-78
2022/10/27 09:22:17;;;;;;;9.77;4.32;;;13.50;99.90;;;;;;4955964;28;20079;-79
2022/10/27 09:25:03;;;;;;;9.30;4.70;;;13.50;99.90;;;;;;4961072;28;20020;-79
2022/10/27 09:27:30;;;;;;;9.40;4.72;;;13.60;99.90;;;;;;4942695;28;20023;-78
2022/10/27 09:30:03;;;;;;;9.77;3.63;;;13.70;99.90;;;;;;4957170;28;20114;-81
2022/10/27 09:32:33;;;;;;;4.93;3.88;;;13.80;99.90;;;;;;4961098;28;20031;-80
2022/10/27 09:35:24;;;;;;;11.35;4.88;;;13.90;99.90;;;;;;4942533;28;20039;-79
2022/10/27 09:37:51;;;;;;;7.22;3.88;;;14.00;99.90;;;;;;4957142;28;20031;-79
2022/10/27 09:40:19;;;;;;;10.23;4.07;;;14.00;99.90;;;;;;4953430;28;20039;-81
2022/10/27 09:42:55;;;;;;;9.65;4.50;;;14.10;99.90;;;;;;4961453;28;20070;-80
2022/10/27 09:45:24;;;;;;;7.28;3.30;;;14.20;99.90;;;;;;4956090;28;20035;-81
2022/10/27 09:48:16;;;;;;;11.75;3.97;;;14.30;99.90;;;;;;4956671;28;20038;-78
2022/10/27 09:50:51;;;;;;;9.45;4.03;;;14.40;99.90;;;;;;4962671;28;20079;-80
2022/10/27 09:53:40;;;;;;;6.47;3.05;;;14.50;99.90;;;;;;4960091;28;20488;-80
2022/10/27 09:56:25;;;;;;;9.10;3.45;;;14.50;99.90;;;;;;4967225;28;20045;-79
2022/10/27 09:59:01;;;;;;;12.60;3.42;;;14.60;99.90;;;;;;4962018;28;20063;-79
2022/10/27 10:01:42;;;;;;;11.13;3.63;;;14.70;99.90;;;;;;4966258;28;20033;-78
2022/10/27 10:04:30;;;;;;;7.75;3.13;;;14.80;99.90;;;;;;4960219;28;20099;-80
2022/10/27 10:06:58;;;;;;;8.70;3.40;;;14.90;99.90;;;;;;4949299;28;20468;-79
2022/10/27 10:09:29;;;;;;;7.65;3.55;;;15.00;99.90;;;;;;4959306;28;21361;-79
2022/10/27 10:12:24;;;;;;;8.18;3.70;;;15.10;99.90;;;;;;4958068;28;20039;-77
2022/10/27 10:15:13;;;;;;;10.82;4.40;;;15.10;99.90;;;;;;4950816;28;20023;-78
2022/10/27 10:17:41;;;;;;;5.25;3.10;;;15.20;99.90;;;;;;4952971;28;20103;-78
2022/10/27 10:20:25;;;;;;;8.52;3.42;;;15.30;99.90;;;;;;4959834;28;20097;-78
2022/10/27 10:22:53;;;;;;;6.55;3.70;;;15.40;99.90;;;;;;4955684;28;20023;-78
2022/10/27 10:25:46;;;;;;;7.95;4.13;;;15.50;99.90;;;;;;4958280;28;20034;-78
2022/10/27 10:28:39;;;;;;;9.15;4.22;;;15.50;99.90;;;;;;4948180;29;20039;-77
2022/10/27 10:31:08;;;;;;;8.18;4.75;;;15.60;99.90;;;;;;4950977;28;20110;-76
2022/10/27 10:33:43;;;;;;;12.65;3.92;;;15.80;99.90;;;;;;4946090;28;20531;-78
2022/10/27 10:36:19;;;;;;;8.65;3.83;;;15.80;99.90;;;;;;4958162;28;20507;-79
2022/10/27 10:38:56;;;;;;;7.95;4.30;;;15.90;99.90;;;;;;4957861;28;20027;-76
2022/10/27 10:41:23;;;;;;;12.32;4.45;;;15.90;99.90;;;;;;4957034;28;20039;-77
2022/10/27 10:44:24;;;;;;;12.20;4.45;;;16.00;99.90;;;;;;4955915;28;20024;-75
2022/10/27 10:46:56;;;;;;;8.18;4.28;;;16.00;99.90;;;;;;4892160;29;20076;-77
2022/10/27 10:49:31;;;;;;;22.25;4.20;;;16.10;99.90;;;;;;4923704;29;20481;-79
2022/10/27 10:52:01;;;;;;;11.20;4.65;;;16.10;99.90;;;;;;4943359;28;20118;-77
2022/10/27 10:54:41;;;;;;;8.32;3.58;;;16.20;99.90;;;;;;4941111;28;20509;-76
2022/10/27 10:57:28;;;;;;;14.45;4.82;;;16.30;99.90;;;;;;4959975;28;20037;-76
2022/10/27 10:59:55;;;;;;;10.50;4.43;;;16.40;99.90;;;;;;4940604;28;20500;-78
2022/10/27 11:02:33;;;;;;;12.15;3.47;;;16.40;99.90;;;;;;4955428;28;20082;-77
2022/10/27 11:05:18;;;;;;;8.45;3.80;;;16.50;99.90;;;;;;4954491;28;20059;-78
2022/10/27 11:07:49;;;;;;;14.70;4.30;;;16.60;99.90;;;;;;4965991;28;20144;-78
2022/10/27 11:10:21;;;;;;;8.30;3.78;;;16.70;99.90;;;;;;4959849;28;20031;-79
2022/10/27 11:13:01;;;;;;;14.05;4.05;;;16.70;99.90;;;;;;4946388;28;20030;-79
2022/10/27 11:15:47;;;;;;;8.32;3.53;;;16.80;99.90;;;;;;4954962;28;20783;-77
2022/10/27 11:18:23;;;;;;;9.27;3.50;;;17.00;99.90;;;;;;4957741;28;20318;-77
2022/10/27 11:21:11;;;;;;;9.32;4.53;;;17.00;99.90;;;;;;4970587;28;20027;-77
2022/10/27 11:23:49;;;;;;;11.23;4.22;;;17.00;99.90;;;;;;4915019;28;20040;-78
2022/10/27 11:26:22;;;;;;;5.97;3.88;;;17.10;99.90;;;;;;4950340;28;20631;-77
2022/10/27 11:28:55;;;;;;;9.32;4.35;;;17.10;99.90;;;;;;4953712;28;20035;-78
2022/10/27 11:31:46;;;;;;;10.87;4.33;;;17.10;99.90;;;;;;4956194;28;20068;-78
2022/10/27 11:34:35;;;;;;;9.48;3.90;;;17.30;99.90;;;;;;4952040;28;20031;-77
2022/10/27 11:37:25;;;;;;;7.60;3.38;;;17.30;99.90;;;;;;4956078;28;20043;-78
2022/10/27 11:40:21;;;;;;;9.55;3.60;;;17.40;99.90;;;;;;4956842;28;20026;-76
2022/10/27 11:43:25;;;;;;;13.45;4.18;;;17.50;99.90;;;;;;4943709;28;20027;-76
2022/10/27 11:46:15;;;;;;;14.00;3.40;;;17.70;99.90;;;;;;4948831;28;20074;-76
2022/10/27 11:48:52;;;;;;;7.95;3.47;;;17.70;99.90;;;;;;4950822;28;20492;-76
2022/10/27 11:51:50;;;;;;;7.05;3.33;;;17.80;99.90;;;;;;4953251;28;20429;-76
2022/10/27 11:54:16;;;;;;;7.50;2.67;;;17.80;99.90;;;;;;4951275;28;20102;-78
2022/10/27 11:57:03;;;;;;;12.20;3.97;;;17.90;99.90;;;;;;4952134;28;20393;-77
2022/10/27 11:59:35;;;;;;;11.48;3.67;;;18.00;99.90;;;;;;4953615;28;20023;-76
2022/10/27 12:02:37;;;;;;;10.32;3.42;;;18.00;99.90;;;;;;4945930;28;20039;-77
2022/10/27 12:05:44;;;;;;;10.68;2.63;;;18.10;99.90;;;;;;4949332;28;20031;-76
2022/10/27 12:08:31;;;;;;;10.30;3.28;;;18.20;99.90;;;;;;4927513;28;20114;-76
2022/10/27 12:11:37;;;;;;;13.73;4.60;;;18.30;99.90;;;;;;4949810;28;20039;-76
2022/10/27 12:14:05;;;;;;;13.63;3.90;;;18.40;99.90;;;;;;4950015;28;20032;-76
2022/10/27 12:16:42;;;;;;;11.10;3.53;;;18.40;99.90;;;;;;4943324;28;20023;-76
2022/10/27 12:19:17;;;;;;;10.98;3.33;;;18.40;99.90;;;;;;4950102;28;20028;-76
2022/10/27 12:22:05;;;;;;;9.18;3.15;;;18.40;99.90;;;;;;4956339;28;20035;-76
2022/10/27 12:25:04;;;;;;;10.15;3.30;;;18.50;99.90;;;;;;4935052;28;20023;-76
2022/10/27 12:27:36;;;;;;;10.52;2.95;;;18.60;99.90;;;;;;4951096;28;20038;-76
2022/10/27 12:30:28;;;;;;;15.02;3.15;;;18.70;99.90;;;;;;4958282;28;20032;-77
2022/10/27 12:33:27;;;;;;;9.00;2.92;;;18.60;99.90;;;;;;4938789;28;20055;-78
2022/10/27 12:36:19;;;;;;;12.55;3.80;;;18.60;99.90;;;;;;4959770;28;20083;-78
2022/10/27 12:39:26;;;;;;;9.40;3.25;;;18.60;99.90;;;;;;4966242;28;20024;-79
2022/10/27 12:42:12;;;;;;;9.15;3.05;;;18.60;99.90;;;;;;4952820;28;20039;-75
2022/10/27 12:45:09;;;;;;;6.90;2.80;;;18.70;99.90;;;;;;4947795;28;20031;-76
2022/10/27 12:48:05;;;;;;;7.07;2.97;;;18.70;99.90;;;;;;4952752;28;20027;-76
2022/10/27 12:50:38;;;;;;;8.18;3.05;;;18.60;99.90;;;;;;4946970;28;20031;-77
2022/10/27 12:53:32;;;;;;;6.35;3.00;;;18.70;99.90;;;;;;4952617;28;20027;-76
2022/10/27 12:56:03;;;;;;;8.90;2.72;;;18.70;99.90;;;;;;4956160;28;20114;-76
2022/10/27 12:58:56;;;;;;;8.75;2.75;;;18.80;99.90;;;;;;4949741;28;20085;-76
2022/10/27 13:01:49;;;;;;;10.65;2.90;;;18.80;99.90;;;;;;4948367;28;20042;-76
2022/10/27 13:04:53;;;;;;;8.40;2.45;;;18.80;99.90;;;;;;4950304;28;20054;-76
2022/10/27 13:07:46;;;;;;;7.82;2.95;;;18.90;99.90;;;;;;4947968;28;20041;-77
2022/10/27 13:10:22;;;;;;;12.80;2.80;;;18.80;99.90;;;;;;4946323;28;20035;-76
2022/10/27 13:13:07;;;;;;;14.13;3.13;;;19.00;99.90;;;;;;4948133;28;20027;-75
2022/10/27 13:15:53;;;;;;;6.78;2.38;;;19.00;99.90;;;;;;4945501;28;20492;-77